Time;durP1;ratioP1;P1;durP2;ratioP2;P2;SDS_P1;SDS_P2;PMS_P1;PMS_P2;Temp;Humidity;BMP_temperature;BMP_pressure;BME280_temperature;BME280_humidity;BME280_pressure;Samples;Min_cycle;Max_cycle;Signal;HPM_P1;HPM_P2
2024/03/04 00:01:18;;;;;;;13.03;4.27;;;;;;;;;;4992889;28;20203;-71
2024/03/04 00:03:43;;;;;;;8.43;4.63;;;;;;;;;;4990062;28;20196;-71
2024/03/04 00:06:10;;;;;;;12.03;4.97;;;;;;;;;;4992709;28;20175;-70
2024/03/04 00:08:35;;;;;;;9.57;4.47;;;;;;;;;;4966214;28;20215;-71
2024/03/04 00:11:00;;;;;;;9.93;4.13;;;;;;;;;;4986173;28;20190;-72
2024/03/04 00:13:25;;;;;;;10.70;4.90;;;;;;;;;;4988182;28;20215;-70
2024/03/04 00:15:52;;;;;;;9.13;5.13;;;;;;;;;;4987771;28;20187;-72
2024/03/04 00:18:17;;;;;;;9.67;4.97;;;;;;;;;;4984750;28;20182;-71
2024/03/04 00:20:43;;;;;;;7.47;4.20;;;;;;;;;;4991223;28;20195;-70
2024/03/04 00:23:08;;;;;;;12.80;5.40;;;;;;;;;;4988694;28;20171;-73
2024/03/04 00:25:33;;;;;;;12.13;5.50;;;;;;;;;;4989071;28;20169;-72
2024/03/04 00:27:58;;;;;;;10.63;4.40;;;;;;;;;;4991071;28;20172;-71
2024/03/04 00:30:26;;;;;;;13.10;4.73;;;;;;;;;;4991293;28;20194;-73
2024/03/04 00:32:51;;;;;;;16.13;5.33;;;;;;;;;;4983222;28;20367;-72
2024/03/04 00:35:17;;;;;;;11.63;4.70;;;;;;;;;;4991272;28;20347;-71
2024/03/04 00:37:42;;;;;;;8.30;4.87;;;;;;;;;;4990015;28;20212;-72
2024/03/04 00:40:12;;;;;;;9.97;4.57;;;;;;;;;;4985122;28;20620;-72
2024/03/04 00:42:38;;;;;;;9.17;4.00;;;;;;;;;;4991060;28;20183;-72
2024/03/04 00:45:05;;;;;;;7.23;4.63;;;;;;;;;;4973850;28;20582;-71
2024/03/04 00:47:30;;;;;;;9.53;4.90;;;;;;;;;;4972202;28;20592;-72
2024/03/04 00:49:55;;;;;;;9.60;3.90;;;;;;;;;;4988473;28;20215;-72
2024/03/04 00:52:21;;;;;;;10.10;4.53;;;;;;;;;;4984979;28;20187;-72
2024/03/04 00:54:46;;;;;;;9.77;4.53;;;;;;;;;;4971336;28;20585;-72
2024/03/04 00:57:11;;;;;;;12.17;4.40;;;;;;;;;;4990903;28;20175;-71
2024/03/04 00:59:37;;;;;;;7.83;4.30;;;;;;;;;;4992681;28;20179;-71
2024/03/04 01:02:04;;;;;;;15.17;5.07;;;;;;;;;;4989060;28;20195;-70
2024/03/04 01:04:29;;;;;;;12.80;4.53;;;;;;;;;;4984346;28;20199;-70
2024/03/04 01:06:54;;;;;;;7.67;4.60;;;;;;;;;;4988416;28;20179;-72
2024/03/04 01:09:19;;;;;;;11.57;4.83;;;;;;;;;;4984240;28;27489;-71
2024/03/04 01:11:45;;;;;;;10.20;4.77;;;;;;;;;;4970125;28;20506;-72
2024/03/04 01:14:10;;;;;;;12.87;5.97;;;;;;;;;;4989213;28;20215;-72
2024/03/04 01:16:35;;;;;;;9.53;4.70;;;;;;;;;;4989177;28;20204;-72
2024/03/04 01:19:01;;;;;;;9.43;4.43;;;;;;;;;;4986598;28;20183;-72
2024/03/04 01:21:26;;;;;;;11.13;6.07;;;;;;;;;;4972386;28;20655;-71
2024/03/04 01:23:52;;;;;;;7.97;4.80;;;;;;;;;;4990571;28;20202;-71
2024/03/04 01:26:18;;;;;;;10.40;4.43;;;;;;;;;;4984087;28;20227;-71
2024/03/04 01:28:44;;;;;;;14.80;5.07;;;;;;;;;;4981733;28;20233;-73
2024/03/04 01:31:11;;;;;;;12.80;5.03;;;;;;;;;;4989933;28;20177;-72
2024/03/04 01:33:36;;;;;;;14.90;5.57;;;;;;;;;;4988297;28;20245;-71
2024/03/04 01:36:04;;;;;;;9.37;5.03;;;;;;;;;;4990275;28;20266;-72
2024/03/04 01:38:29;;;;;;;13.47;5.10;;;;;;;;;;4987516;28;20620;-73
2024/03/04 01:40:54;;;;;;;13.63;5.57;;;;;;;;;;4994536;28;20294;-72
2024/03/04 01:43:19;;;;;;;12.20;5.83;;;;;;;;;;4982846;28;20208;-73
2024/03/04 01:45:44;;;;;;;13.90;6.10;;;;;;;;;;4989377;28;20186;-72
2024/03/04 01:48:10;;;;;;;9.23;5.73;;;;;;;;;;4988227;28;20258;-73
2024/03/04 01:50:38;;;;;;;11.53;6.10;;;;;;;;;;4993210;28;20194;-71
2024/03/04 01:53:04;;;;;;;13.87;5.67;;;;;;;;;;4986391;28;20682;-71
2024/03/04 01:55:32;;;;;;;10.37;5.03;;;;;;;;;;4977544;28;20270;-71
2024/03/04 01:57:57;;;;;;;12.27;6.03;;;;;;;;;;4992161;28;20176;-71
2024/03/04 02:00:23;;;;;;;12.60;5.17;;;;;;;;;;4978131;28;20204;-70
2024/03/04 02:02:53;;;;;;;9.07;4.67;;;;;;;;;;4994436;28;20176;-72
2024/03/04 02:05:18;;;;;;;12.43;5.43;;;;;;;;;;4992203;28;20251;-71
2024/03/04 02:07:44;;;;;;;12.23;4.70;;;;;;;;;;4984525;28;20314;-71
2024/03/04 02:10:12;;;;;;;10.73;5.33;;;;;;;;;;4990623;28;20648;-72
2024/03/04 02:12:37;;;;;;;8.97;4.70;;;;;;;;;;4992823;28;20194;-72
2024/03/04 02:15:03;;;;;;;9.90;4.93;;;;;;;;;;4974871;28;20695;-70
2024/03/04 02:17:28;;;;;;;10.50;5.17;;;;;;;;;;4975853;28;20203;-69
2024/03/04 02:19:59;;;;;;;11.20;4.70;;;;;;;;;;4993129;28;20370;-69
2024/03/04 02:22:27;;;;;;;6.57;3.47;;;;;;;;;;4991284;28;20262;-69
2024/03/04 02:24:52;;;;;;;8.13;3.80;;;;;;;;;;4991965;28;20709;-68
2024/03/04 02:27:17;;;;;;;9.60;4.63;;;;;;;;;;4982813;28;20179;-70
2024/03/04 02:29:44;;;;;;;8.70;4.23;;;;;;;;;;4992266;28;20507;-68
2024/03/04 02:32:09;;;;;;;5.53;3.60;;;;;;;;;;4991622;28;20188;-69
2024/03/04 02:34:35;;;;;;;8.43;3.87;;;;;;;;;;4993494;28;20208;-69
2024/03/04 02:37:00;;;;;;;5.53;3.13;;;;;;;;;;4992871;28;20187;-69
2024/03/04 02:39:26;;;;;;;8.47;3.80;;;;;;;;;;4974899;28;20191;-69
2024/03/04 02:41:51;;;;;;;6.43;2.90;;;;;;;;;;4974619;28;20214;-69
2024/03/04 02:44:16;;;;;;;8.03;3.20;;;;;;;;;;4983203;28;20207;-69
2024/03/04 02:46:41;;;;;;;4.27;2.70;;;;;;;;;;4991925;28;20215;-69
2024/03/04 02:49:07;;;;;;;7.00;2.73;;;;;;;;;;4988376;28;20180;-68
2024/03/04 02:51:32;;;;;;;7.07;2.70;;;;;;;;;;4992190;28;20184;-70
2024/03/04 02:53:58;;;;;;;4.80;2.10;;;;;;;;;;4991987;28;20393;-69
2024/03/04 02:56:23;;;;;;;5.30;2.30;;;;;;;;;;4991445;28;20567;-69
2024/03/04 02:58:48;;;;;;;5.37;2.17;;;;;;;;;;4992168;28;20194;-69
2024/03/04 03:01:14;;;;;;;5.33;2.53;;;;;;;;;;4987401;28;20589;-68
2024/03/04 03:03:39;;;;;;;5.47;2.10;;;;;;;;;;4984592;28;20350;-70
2024/03/04 03:06:04;;;;;;;3.47;2.10;;;;;;;;;;4992349;28;20640;-69
2024/03/04 03:08:29;;;;;;;4.07;1.90;;;;;;;;;;4987495;28;20194;-69
2024/03/04 03:10:55;;;;;;;6.20;1.90;;;;;;;;;;4992569;28;20841;-67
2024/03/04 03:13:20;;;;;;;5.13;1.73;;;;;;;;;;4992066;28;20270;-70
2024/03/04 03:15:45;;;;;;;11.10;2.40;;;;;;;;;;4991649;28;20187;-69
2024/03/04 03:18:13;;;;;;;2.87;1.30;;;;;;;;;;4986482;28;20179;-68
2024/03/04 03:20:38;;;;;;;5.47;1.43;;;;;;;;;;4987325;28;20637;-70
2024/03/04 03:23:04;;;;;;;1.93;1.40;;;;;;;;;;4991845;28;20270;-70
2024/03/04 03:25:29;;;;;;;1.90;1.30;;;;;;;;;;4972329;28;21787;-69
2024/03/04 03:27:54;;;;;;;5.33;1.10;;;;;;;;;;4992105;28;20663;-69
2024/03/04 03:30:20;;;;;;;2.43;1.10;;;;;;;;;;4992997;28;20593;-69
2024/03/04 03:32:45;;;;;;;4.90;1.07;;;;;;;;;;4992303;28;20203;-70
2024/03/04 03:35:10;;;;;;;4.13;1.17;;;;;;;;;;4965980;28;20200;-70
2024/03/04 03:37:36;;;;;;;3.67;0.97;;;;;;;;;;4988526;28;20186;-69
2024/03/04 03:40:02;;;;;;;2.00;0.93;;;;;;;;;;4987252;28;20635;-69
2024/03/04 03:42:29;;;;;;;2.30;0.70;;;;;;;;;;4991487;28;20199;-69
2024/03/04 03:44:54;;;;;;;1.90;0.60;;;;;;;;;;4982694;28;20238;-69
2024/03/04 03:47:20;;;;;;;1.27;0.93;;;;;;;;;;4986414;28;20203;-70
2024/03/04 03:49:45;;;;;;;1.63;0.90;;;;;;;;;;4994749;28;20176;-68
2024/03/04 03:52:10;;;;;;;5.47;1.53;;;;;;;;;;4991095;28;20187;-69
2024/03/04 03:54:35;;;;;;;1.63;1.00;;;;;;;;;;4995440;28;20210;-69
2024/03/04 03:57:00;;;;;;;1.70;0.80;;;;;;;;;;4993392;28;20179;-68
2024/03/04 03:59:26;;;;;;;2.63;0.80;;;;;;;;;;4995986;28;20195;-70
2024/03/04 04:01:52;;;;;;;6.17;0.80;;;;;;;;;;4988670;28;20561;-68
2024/03/04 04:04:17;;;;;;;4.60;1.00;;;;;;;;;;4970073;28;20206;-68
2024/03/04 04:06:43;;;;;;;5.00;0.87;;;;;;;;;;4975724;28;20570;-69
2024/03/04 04:09:08;;;;;;;3.03;0.97;;;;;;;;;;4988016;28;20180;-69
2024/03/04 04:11:33;;;;;;;2.60;0.90;;;;;;;;;;4986668;28;20194;-68
2024/03/04 04:13:58;;;;;;;6.70;1.40;;;;;;;;;;4987334;28;20207;-69
2024/03/04 04:16:28;;;;;;;3.13;1.00;;;;;;;;;;4983771;28;20183;-69
2024/03/04 04:18:53;;;;;;;4.00;1.00;;;;;;;;;;4991870;28;20535;-70
2024/03/04 04:21:21;;;;;;;1.17;0.90;;;;;;;;;;4981072;28;20195;-69
2024/03/04 04:23:47;;;;;;;3.90;1.40;;;;;;;;;;4981451;28;20747;-69
2024/03/04 04:26:12;;;;;;;2.80;0.97;;;;;;;;;;4963480;28;20263;-69
2024/03/04 04:28:37;;;;;;;2.87;0.97;;;;;;;;;;4987260;28;20526;-69
2024/03/04 04:31:03;;;;;;;3.37;0.97;;;;;;;;;;4987510;28;20609;-69
2024/03/04 04:33:29;;;;;;;1.40;0.77;;;;;;;;;;4986983;28;20235;-69
2024/03/04 04:35:54;;;;;;;3.47;1.03;;;;;;;;;;4991450;28;20275;-69
2024/03/04 04:38:19;;;;;;;3.13;0.70;;;;;;;;;;4986973;28;20714;-68
2024/03/04 04:40:45;;;;;;;4.53;0.80;;;;;;;;;;4981630;28;20251;-70
2024/03/04 04:43:10;;;;;;;3.93;1.07;;;;;;;;;;4983913;28;20258;-69
2024/03/04 04:45:35;;;;;;;3.83;1.10;;;;;;;;;;4981069;28;20551;-68
2024/03/04 04:48:00;;;;;;;7.67;1.07;;;;;;;;;;4987121;28;20262;-69
2024/03/04 04:50:27;;;;;;;4.20;0.83;;;;;;;;;;4981934;28;20233;-68
2024/03/04 04:52:52;;;;;;;4.90;0.80;;;;;;;;;;4972588;28;20561;-69
2024/03/04 04:55:17;;;;;;;2.13;0.80;;;;;;;;;;4974144;28;20187;-70
2024/03/04 04:57:42;;;;;;;1.60;0.77;;;;;;;;;;4985783;28;20183;-69
2024/03/04 05:00:08;;;;;;;2.67;0.70;;;;;;;;;;4983358;28;20183;-69
2024/03/04 05:02:34;;;;;;;6.03;1.63;;;;;;;;;;4979887;28;20175;-69
2024/03/04 05:04:59;;;;;;;0.70;0.50;;;;;;;;;;4970406;28;20743;-69
2024/03/04 05:07:25;;;;;;;2.83;0.70;;;;;;;;;;4981071;28;20574;-71
2024/03/04 05:09:50;;;;;;;3.50;0.90;;;;;;;;;;4985340;28;20184;-71
2024/03/04 05:12:15;;;;;;;1.60;0.80;;;;;;;;;;4985861;28;20176;-69
2024/03/04 05:14:41;;;;;;;3.00;0.63;;;;;;;;;;4980882;28;20655;-70
2024/03/04 05:17:07;;;;;;;2.87;0.80;;;;;;;;;;4983613;28;20274;-70
2024/03/04 05:19:36;;;;;;;1.13;0.90;;;;;;;;;;4982667;28;20685;-70
2024/03/04 05:22:02;;;;;;;3.67;0.90;;;;;;;;;;4984996;28;20223;-70
2024/03/04 05:24:28;;;;;;;3.67;1.00;;;;;;;;;;4985067;28;20290;-69
2024/03/04 05:26:53;;;;;;;2.67;0.70;;;;;;;;;;4986979;28;20263;-69
2024/03/04 05:29:18;;;;;;;1.90;0.67;;;;;;;;;;4974165;28;20176;-69
2024/03/04 05:31:53;;;;;;;4.07;0.60;;;;;;;;;;4986479;28;20180;-70
2024/03/04 05:34:18;;;;;;;1.20;0.73;;;;;;;;;;4981232;28;20255;-69
2024/03/04 05:36:44;;;;;;;2.03;0.60;;;;;;;;;;4973085;28;20183;-69
2024/03/04 05:39:10;;;;;;;4.30;0.70;;;;;;;;;;4978694;28;20645;-68
2024/03/04 05:41:35;;;;;;;2.47;0.90;;;;;;;;;;4972570;28;20226;-69
2024/03/04 05:44:00;;;;;;;4.37;1.10;;;;;;;;;;4965385;28;20203;-68
2024/03/04 05:46:25;;;;;;;7.13;0.90;;;;;;;;;;4969057;28;20179;-68
2024/03/04 05:48:51;;;;;;;4.80;1.10;;;;;;;;;;4980779;28;20173;-69
2024/03/04 05:51:16;;;;;;;3.13;0.93;;;;;;;;;;4986713;28;20719;-68
2024/03/04 05:53:41;;;;;;;3.00;0.60;;;;;;;;;;4982249;28;20195;-69
2024/03/04 05:56:06;;;;;;;2.93;1.00;;;;;;;;;;4983709;28;20208;-69
2024/03/04 05:58:31;;;;;;;3.33;0.93;;;;;;;;;;4986387;28;20495;-68
2024/03/04 06:00:57;;;;;;;2.10;0.93;;;;;;;;;;4968970;28;20211;-67
2024/03/04 06:03:22;;;;;;;5.53;0.90;;;;;;;;;;4981751;28;20198;-69
2024/03/04 06:05:47;;;;;;;1.47;0.90;;;;;;;;;;4982547;28;20172;-69
2024/03/04 06:08:14;;;;;;;3.73;0.97;;;;;;;;;;4967483;28;20204;-69
2024/03/04 06:10:41;;;;;;;5.37;2.00;;;;;;;;;;4986850;28;20622;-69
2024/03/04 06:13:07;;;;;;;2.83;0.97;;;;;;;;;;4986302;28;20242;-68
2024/03/04 06:15:32;;;;;;;1.40;0.73;;;;;;;;;;4985330;28;20179;-69
2024/03/04 06:17:57;;;;;;;1.27;0.90;;;;;;;;;;4980066;28;20181;-70
2024/03/04 06:20:22;;;;;;;3.93;1.47;;;;;;;;;;4974872;28;20182;-69
2024/03/04 06:22:48;;;;;;;7.03;1.07;;;;;;;;;;4985716;28;20686;-70
2024/03/04 06:25:13;;;;;;;2.67;1.00;;;;;;;;;;4983053;28;21330;-69
2024/03/04 06:27:38;;;;;;;5.90;1.20;;;;;;;;;;4983446;28;20224;-69
2024/03/04 06:30:08;;;;;;;4.40;1.37;;;;;;;;;;4982349;28;20176;-70
2024/03/04 06:32:33;;;;;;;1.30;1.10;;;;;;;;;;4980587;28;20266;-69
2024/03/04 06:34:59;;;;;;;2.17;0.93;;;;;;;;;;4985281;28;20283;-70
2024/03/04 06:37:24;;;;;;;1.37;0.90;;;;;;;;;;4992169;28;20188;-70
2024/03/04 06:39:49;;;;;;;5.50;1.20;;;;;;;;;;4981287;28;20172;-69
2024/03/04 06:42:14;;;;;;;4.90;1.20;;;;;;;;;;4984448;28;20821;-69
2024/03/04 06:44:40;;;;;;;3.50;1.10;;;;;;;;;;4973355;28;20207;-69
2024/03/04 06:47:05;;;;;;;3.33;1.37;;;;;;;;;;4987154;28;20183;-70
2024/03/04 06:49:31;;;;;;;1.60;0.90;;;;;;;;;;4986232;28;20179;-69
2024/03/04 06:51:56;;;;;;;2.80;1.00;;;;;;;;;;4988384;28;20274;-68
2024/03/04 06:54:21;;;;;;;3.93;1.27;;;;;;;;;;4975836;28;20219;-70
2024/03/04 06:56:46;;;;;;;1.00;0.90;;;;;;;;;;4991185;28;20544;-69
2024/03/04 06:59:11;;;;;;;3.53;1.53;;;;;;;;;;4987746;28;20236;-69
2024/03/04 07:01:37;;;;;;;2.93;1.00;;;;;;;;;;4982267;28;20290;-69
2024/03/04 07:04:02;;;;;;;2.73;1.00;;;;;;;;;;4989297;28;20187;-69
2024/03/04 07:06:27;;;;;;;5.80;1.30;;;;;;;;;;4987286;28;20211;-70
2024/03/04 07:08:53;;;;;;;2.50;0.83;;;;;;;;;;4985806;28;20168;-69
2024/03/04 07:11:18;;;;;;;3.33;1.33;;;;;;;;;;4992171;28;20216;-70
2024/03/04 07:13:44;;;;;;;2.33;1.37;;;;;;;;;;4976043;28;20613;-69
2024/03/04 07:16:12;;;;;;;3.87;1.03;;;;;;;;;;4990525;28;20653;-70
2024/03/04 07:18:38;;;;;;;4.13;1.17;;;;;;;;;;4970276;28;20183;-70
2024/03/04 07:21:03;;;;;;;1.17;0.80;;;;;;;;;;4987641;28;21159;-69
2024/03/04 07:23:28;;;;;;;2.30;1.10;;;;;;;;;;4987773;28;20270;-69
2024/03/04 07:25:53;;;;;;;1.93;1.10;;;;;;;;;;4993594;28;20263;-70
2024/03/04 07:28:19;;;;;;;1.37;1.00;;;;;;;;;;4978330;28;20236;-69
2024/03/04 07:30:44;;;;;;;4.70;0.90;;;;;;;;;;5001947;28;20179;-69
2024/03/04 07:33:11;;;;;;;4.37;1.20;;;;;;;;;;5000391;28;20171;-69
2024/03/04 07:35:37;;;;;;;3.07;1.50;;;;;;;;;;4991812;28;20176;-68
2024/03/04 07:38:02;;;;;;;5.07;1.80;;;;;;;;;;4988315;28;20182;-69
2024/03/04 07:40:27;;;;;;;3.00;1.30;;;;;;;;;;4969955;28;20201;-70
2024/03/04 07:42:52;;;;;;;6.27;1.43;;;;;;;;;;4992607;28;20219;-69
2024/03/04 07:45:17;;;;;;;3.63;1.47;;;;;;;;;;4987291;28;20263;-70
2024/03/04 07:47:43;;;;;;;3.73;1.47;;;;;;;;;;4986129;28;20172;-70
2024/03/04 07:50:08;;;;;;;3.47;1.70;;;;;;;;;;4985708;28;20172;-69
2024/03/04 07:52:33;;;;;;;2.07;0.90;;;;;;;;;;4987390;28;20230;-69
2024/03/04 07:54:59;;;;;;;1.53;1.20;;;;;;;;;;4972907;28;20603;-70
2024/03/04 07:57:24;;;;;;;5.90;1.50;;;;;;;;;;4985674;28;20188;-69
2024/03/04 07:59:49;;;;;;;4.10;1.30;;;;;;;;;;4987592;28;20186;-70
2024/03/04 08:02:14;;;;;;;6.17;1.50;;;;;;;;;;4983224;28;20207;-69
2024/03/04 08:04:44;;;;;;;4.23;1.13;;;;;;;;;;4986985;28;20291;-68
2024/03/04 08:07:09;;;;;;;1.67;1.00;;;;;;;;;;4972157;28;20219;-68
2024/03/04 08:09:34;;;;;;;2.17;0.97;;;;;;;;;;4985868;28;20222;-69
2024/03/04 08:11:59;;;;;;;4.17;1.33;;;;;;;;;;4984755;28;20184;-69
2024/03/04 08:14:25;;;;;;;0.97;0.87;;;;;;;;;;4997395;23;20321;-69
2024/03/04 08:16:50;;;;;;;7.93;1.23;;;;;;;;;;4989196;28;20183;-69
2024/03/04 08:19:15;;;;;;;2.43;0.90;;;;;;;;;;5001518;28;20171;-69
2024/03/04 08:21:42;;;;;;;6.03;1.00;;;;;;;;;;5000187;28;20211;-69
2024/03/04 08:24:08;;;;;;;3.10;1.23;;;;;;;;;;5007065;28;20191;-69
2024/03/04 08:26:34;;;;;;;5.23;1.13;;;;;;;;;;4974893;28;20230;-69
2024/03/04 08:28:59;;;;;;;3.10;0.80;;;;;;;;;;4974594;28;20552;-69
2024/03/04 08:31:24;;;;;;;1.50;0.87;;;;;;;;;;4992053;28;20240;-69
2024/03/04 08:33:50;;;;;;;1.23;0.70;;;;;;;;;;4992041;28;20175;-69
2024/03/04 08:36:15;;;;;;;2.07;0.80;;;;;;;;;;4987531;28;20172;-69
2024/03/04 08:38:40;;;;;;;2.13;0.73;;;;;;;;;;4992438;28;20187;-69
2024/03/04 08:41:05;;;;;;;3.33;0.93;;;;;;;;;;4984339;28;20203;-69
2024/03/04 08:43:31;;;;;;;1.97;0.93;;;;;;;;;;4986801;28;20187;-69
2024/03/04 08:45:57;;;;;;;1.23;0.80;;;;;;;;;;4985804;28;20270;-70
2024/03/04 08:48:22;;;;;;;1.33;0.88;;;;;;;;;;4989214;28;20624;-70
2024/03/04 08:50:48;;;;;;;1.70;0.50;;;;;;;;;;4990980;28;20185;-69
2024/03/04 08:53:13;;;;;;;4.85;0.98;;;;;;;;;;4974091;28;20267;-70
2024/03/04 08:55:39;;;;;;;1.20;0.60;;;;;;;;;;4991570;28;20291;-68
2024/03/04 08:58:04;;;;;;;1.70;0.80;;;;;;;;;;4991385;28;20180;-69
2024/03/04 09:00:29;;;;;;;2.42;0.80;;;;;;;;;;4991936;28;20179;-69
2024/03/04 09:02:54;;;;;;;4.80;1.40;;;;;;;;;;4991531;28;20174;-70
2024/03/04 09:05:21;;;;;;;1.52;0.50;;;;;;;;;;4966527;28;20661;-68
2024/03/04 09:07:46;;;;;;;2.40;0.90;;;;;;;;;;4988937;28;20184;-69
2024/03/04 09:10:15;;;;;;;2.90;0.80;;;;;;;;;;4991468;28;20210;-68
2024/03/04 09:12:40;;;;;;;2.28;0.95;;;;;;;;;;4991239;28;20183;-69
2024/03/04 09:15:09;;;;;;;1.17;0.70;;;;;;;;;;4991220;28;20331;-68
2024/03/04 09:17:35;;;;;;;2.80;0.80;;;;;;;;;;4990677;28;20593;-69
2024/03/04 09:20:00;;;;;;;1.25;1.10;;;;;;;;;;4987824;28;20262;-69
2024/03/04 09:22:25;;;;;;;2.42;1.30;;;;;;;;;;4989964;28;20206;-69
2024/03/04 09:24:52;;;;;;;2.00;0.85;;;;;;;;;;4983443;28;20254;-68
2024/03/04 09:27:17;;;;;;;3.58;0.90;;;;;;;;;;4973393;28;20554;-69
2024/03/04 09:29:42;;;;;;;2.50;1.20;;;;;;;;;;4991453;28;20175;-69
2024/03/04 09:32:08;;;;;;;1.67;0.90;;;;;;;;;;4990898;28;20536;-69
2024/03/04 09:34:33;;;;;;;2.70;1.88;;;;;;;;;;4991247;28;20302;-69
2024/03/04 09:37:01;;;;;;;2.25;1.10;;;;;;;;;;4973506;28;20179;-69
2024/03/04 09:39:26;;;;;;;2.50;0.90;;;;;;;;;;4991299;28;20180;-69
2024/03/04 09:41:54;;;;;;;5.03;0.80;;;;;;;;;;4986067;28;20571;-69
2024/03/04 09:44:20;;;;;;;1.40;0.77;;;;;;;;;;4985945;28;20250;-69
2024/03/04 09:46:46;;;;;;;1.52;0.73;;;;;;;;;;4967517;28;20180;-69
2024/03/04 09:49:13;;;;;;;4.00;1.33;;;;;;;;;;4984704;28;20179;-69
2024/03/04 09:51:39;;;;;;;3.00;1.67;;;;;;;;;;4989934;28;20593;-69
2024/03/04 09:54:04;;;;;;;2.03;0.75;;;;;;;;;;4991597;28;20282;-69
2024/03/04 09:56:29;;;;;;;1.35;1.20;;;;;;;;;;4990942;28;20184;-69
2024/03/04 09:58:55;;;;;;;1.38;1.20;;;;;;;;;;4990980;28;20690;-69
2024/03/04 10:01:20;;;;;;;4.72;1.30;;;;;;;;;;4990806;28;20204;-69
2024/03/04 10:03:46;;;;;;;3.70;1.35;;;;;;;;;;4991264;28;20662;-69
2024/03/04 10:06:11;;;;;;;3.80;1.30;;;;;;;;;;4985368;28;20723;-69
2024/03/04 10:08:36;;;;;;;2.10;1.58;;;;;;;;;;4991600;28;20592;-68
2024/03/04 10:11:02;;;;;;;4.53;1.40;;;;;;;;;;4994130;28;20183;-69
2024/03/04 10:13:28;;;;;;;2.60;1.48;;;;;;;;;;4995062;28;20274;-69
2024/03/04 10:15:53;;;;;;;3.13;1.30;;;;;;;;;;4994318;28;20257;-68
2024/03/04 10:18:18;;;;;;;1.73;1.25;;;;;;;;;;4974116;28;20180;-69
2024/03/04 10:20:44;;;;;;;3.17;1.10;;;;;;;;;;4986292;28;20281;-69
2024/03/04 10:23:10;;;;;;;1.35;1.02;;;;;;;;;;4986575;28;21568;-69
2024/03/04 10:25:35;;;;;;;2.03;0.93;;;;;;;;;;4990729;28;20705;-69
2024/03/04 10:28:00;;;;;;;2.15;1.10;;;;;;;;;;4989997;28;20190;-69
2024/03/04 10:30:27;;;;;;;2.95;1.50;;;;;;;;;;4972257;28;20616;-70
2024/03/04 10:32:56;;;;;;;3.72;1.45;;;;;;;;;;4993692;28;20178;-69
2024/03/04 10:35:22;;;;;;;2.55;1.30;;;;;;;;;;4993436;28;20654;-69
2024/03/04 10:37:48;;;;;;;3.65;1.40;;;;;;;;;;4982658;28;20180;-69
2024/03/04 10:40:13;;;;;;;3.65;1.85;;;;;;;;;;4989797;28;20176;-69
2024/03/04 10:42:39;;;;;;;3.85;1.30;;;;;;;;;;4993187;28;20210;-68
2024/03/04 10:45:05;;;;;;;1.30;0.95;;;;;;;;;;4974838;28;20706;-69
2024/03/04 10:47:32;;;;;;;1.40;0.80;;;;;;;;;;4985524;28;20195;-69
2024/03/04 10:49:57;;;;;;;2.78;1.00;;;;;;;;;;4968980;28;20183;-69
2024/03/04 10:52:22;;;;;;;1.30;1.00;;;;;;;;;;4991707;28;20203;-69
2024/03/04 10:54:48;;;;;;;2.35;1.00;;;;;;;;;;4993045;28;20204;-69
2024/03/04 10:57:26;;;;;;;1.02;0.80;;;;;;;;;;4992513;28;20274;-69
2024/03/04 10:59:58;;;;;;;2.50;0.90;;;;;;;;;;4969901;28;20651;-69
2024/03/04 11:02:36;;;;;;;4.85;1.35;;;;;;;;;;4991777;28;20210;-68
2024/03/04 11:05:04;;;;;;;4.75;2.05;;;;;;;;;;4976121;28;20195;-69
2024/03/04 11:07:30;;;;;;;4.55;1.50;;;;;;;;;;4991272;28;20205;-68
2024/03/04 11:09:57;;;;;;;3.53;1.63;;;;;;;;;;4985932;28;20179;-69
2024/03/04 11:12:22;;;;;;;3.05;1.50;;;;;;;;;;4987008;28;20303;-69
2024/03/04 11:15:04;;;;;;;2.00;1.17;;;;;;;;;;4975378;28;20306;-69
2024/03/04 11:17:31;;;;;;;1.95;1.25;;;;;;;;;;4989531;28;20227;-69
2024/03/04 11:19:57;;;;;;;2.33;1.40;;;;;;;;;;4989789;28;20269;-69
2024/03/04 11:22:23;;;;;;;3.60;1.65;;;;;;;;;;4985599;28;20202;-69
2024/03/04 11:24:49;;;;;;;2.47;1.48;;;;;;;;;;4984533;28;20581;-68
2024/03/04 11:27:18;;;;;;;1.60;1.25;;;;;;;;;;4989684;28;20250;-69
2024/03/04 11:29:43;;;;;;;1.80;1.45;;;;;;;;;;4990488;28;20258;-69
2024/03/04 11:32:09;;;;;;;2.22;1.83;;;;;;;;;;4989871;28;20307;-68
2024/03/04 11:34:53;;;;;;;2.70;1.75;;;;;;;;;;4986914;28;20254;-69
2024/03/04 11:37:18;;;;;;;5.65;1.50;;;;;;;;;;4988365;28;20172;-68
2024/03/04 11:39:44;;;;;;;4.32;1.90;;;;;;;;;;4991985;28;20218;-69
2024/03/04 11:42:21;;;;;;;3.03;1.90;;;;;;;;;;4990568;28;20191;-70
2024/03/04 11:44:47;;;;;;;2.72;1.80;;;;;;;;;;4989150;28;20208;-69
2024/03/04 11:47:12;;;;;;;2.35;1.60;;;;;;;;;;4987488;28;20218;-68
2024/03/04 11:49:47;;;;;;;3.75;1.63;;;;;;;;;;4967505;28;20592;-69
2024/03/04 11:52:18;;;;;;;2.50;2.00;;;;;;;;;;4986431;28;20175;-69
2024/03/04 11:54:44;;;;;;;2.05;1.52;;;;;;;;;;4985321;28;20203;-69
2024/03/04 11:57:10;;;;;;;2.53;1.65;;;;;;;;;;4967239;28;20180;-69
2024/03/04 11:59:36;;;;;;;3.55;2.22;;;;;;;;;;4991920;28;20270;-69
2024/03/04 12:02:08;;;;;;;3.47;1.83;;;;;;;;;;4990753;28;20331;-69
2024/03/04 12:04:34;;;;;;;3.20;1.88;;;;;;;;;;4988996;28;20368;-70
2024/03/04 12:07:00;;;;;;;3.15;2.00;;;;;;;;;;4986403;28;20549;-69
2024/03/04 12:09:26;;;;;;;1.83;1.60;;;;;;;;;;4986738;28;20182;-69
2024/03/04 12:11:52;;;;;;;2.03;1.63;;;;;;;;;;4970231;28;20195;-69
2024/03/04 12:14:17;;;;;;;2.42;1.80;;;;;;;;;;4947214;28;1125872;-69
2024/03/04 12:16:42;;;;;;;3.33;2.10;;;;;;;;;;4991164;28;20238;-69
2024/03/04 12:19:07;;;;;;;2.30;2.00;;;;;;;;;;4989182;28;20194;-69
2024/03/04 12:21:33;;;;;;;3.67;2.30;;;;;;;;;;4985013;28;20650;-69
2024/03/04 12:23:58;;;;;;;3.28;2.30;;;;;;;;;;4987933;28;20203;-69
2024/03/04 12:26:23;;;;;;;3.25;2.45;;;;;;;;;;4991021;28;20612;-68
2024/03/04 12:28:58;;;;;;;3.00;2.40;;;;;;;;;;4973651;28;20191;-68
2024/03/04 12:31:23;;;;;;;2.58;2.20;;;;;;;;;;4987705;28;20219;-68
2024/03/04 12:33:48;;;;;;;2.88;2.22;;;;;;;;;;4988310;28;20714;-68
2024/03/04 12:36:16;;;;;;;2.72;2.20;;;;;;;;;;4989046;28;20172;-69
2024/03/04 12:38:42;;;;;;;3.42;2.53;;;;;;;;;;4973922;28;20197;-69
2024/03/04 12:41:16;;;;;;;4.40;2.45;;;;;;;;;;4988459;28;20203;-70
2024/03/04 12:43:41;;;;;;;2.28;1.80;;;;;;;;;;4971055;28;20234;-70
2024/03/04 12:46:09;;;;;;;1.48;1.38;;;;;;;;;;4990838;28;20604;-70
2024/03/04 12:48:37;;;;;;;1.95;1.40;;;;;;;;;;4985953;28;20458;-69
2024/03/04 12:51:02;;;;;;;1.90;1.40;;;;;;;;;;4966288;28;20194;-69
2024/03/04 12:53:27;;;;;;;3.15;1.85;;;;;;;;;;4988967;28;20270;-69
2024/03/04 12:55:53;;;;;;;2.42;1.67;;;;;;;;;;4990795;28;20257;-69
2024/03/04 12:58:18;;;;;;;2.83;1.80;;;;;;;;;;4990695;28;20179;-70
2024/03/04 13:00:45;;;;;;;5.38;2.05;;;;;;;;;;4988618;28;20647;-70
2024/03/04 13:03:11;;;;;;;2.85;1.70;;;;;;;;;;4969626;28;20180;-70
2024/03/04 13:05:36;;;;;;;3.17;2.25;;;;;;;;;;4984484;28;20660;-70
2024/03/04 13:08:03;;;;;;;3.10;2.17;;;;;;;;;;4984497;28;20175;-69
2024/03/04 13:10:28;;;;;;;3.05;2.25;;;;;;;;;;4979293;28;20306;-69
2024/03/04 13:12:54;;;;;;;3.13;2.35;;;;;;;;;;4981710;28;20262;-69
2024/03/04 13:15:19;;;;;;;3.92;2.25;;;;;;;;;;4971577;28;20211;-70
2024/03/04 13:17:44;;;;;;;2.88;2.40;;;;;;;;;;4990746;28;20180;-70
2024/03/04 13:20:10;;;;;;;3.53;1.98;;;;;;;;;;4988725;28;20184;-70
2024/03/04 13:22:45;;;;;;;2.67;2.00;;;;;;;;;;4988071;28;20199;-69
2024/03/04 13:25:10;;;;;;;2.10;1.52;;;;;;;;;;4990774;28;20199;-69
2024/03/04 13:27:37;;;;;;;2.42;2.03;;;;;;;;;;4986039;28;20188;-69
2024/03/04 13:30:03;;;;;;;2.65;2.15;;;;;;;;;;4986079;28;20218;-70
2024/03/04 13:32:28;;;;;;;4.57;2.63;;;;;;;;;;4989554;28;20192;-70
2024/03/04 13:34:54;;;;;;;5.22;3.15;;;;;;;;;;4990582;28;20203;-70
2024/03/04 13:37:19;;;;;;;3.70;2.63;;;;;;;;;;4989345;28;20184;-69
2024/03/04 13:39:44;;;;;;;3.42;1.92;;;;;;;;;;4989658;28;20182;-69
2024/03/04 13:42:09;;;;;;;5.65;2.15;;;;;;;;;;4987860;28;20207;-69
2024/03/04 13:44:34;;;;;;;2.58;2.13;;;;;;;;;;4990856;28;20195;-69
2024/03/04 13:47:00;;;;;;;3.47;2.40;;;;;;;;;;4985643;28;20203;-69
2024/03/04 13:49:25;;;;;;;7.13;2.97;;;;;;;;;;4984194;28;20259;-70
2024/03/04 13:51:50;;;;;;;5.88;2.60;;;;;;;;;;4983725;28;20242;-70
2024/03/04 13:54:15;;;;;;;3.97;2.42;;;;;;;;;;4991794;28;20227;-70
2024/03/04 13:56:42;;;;;;;4.13;2.65;;;;;;;;;;4994286;28;20206;-70
2024/03/04 13:59:09;;;;;;;3.92;2.60;;;;;;;;;;4994269;28;20179;-70
2024/03/04 14:01:35;;;;;;;2.65;2.00;;;;;;;;;;4991031;28;20209;-70
2024/03/04 14:04:00;;;;;;;2.75;1.90;;;;;;;;;;4992525;28;20667;-70
2024/03/04 14:06:25;;;;;;;3.05;2.20;;;;;;;;;;4991766;28;20176;-70
2024/03/04 14:08:51;;;;;;;3.55;2.35;;;;;;;;;;4989901;28;20211;-69
2024/03/04 14:11:16;;;;;;;2.83;2.17;;;;;;;;;;4986273;28;20204;-69
2024/03/04 14:13:41;;;;;;;5.65;2.20;;;;;;;;;;4993360;28;20245;-69
2024/03/04 14:16:08;;;;;;;3.83;2.20;;;;;;;;;;4993742;28;20263;-69
2024/03/04 14:18:34;;;;;;;3.55;2.50;;;;;;;;;;4975957;28;20180;-69
2024/03/04 14:20:59;;;;;;;4.35;2.50;;;;;;;;;;4992181;28;20290;-69
2024/03/04 14:23:25;;;;;;;4.18;2.00;;;;;;;;;;4990898;28;20603;-70
2024/03/04 14:25:50;;;;;;;3.80;2.67;;;;;;;;;;4974710;28;20797;-69
2024/03/04 14:28:17;;;;;;;4.38;2.47;;;;;;;;;;4984677;28;20288;-71
2024/03/04 14:30:42;;;;;;;2.85;2.47;;;;;;;;;;4985582;28;20685;-69
2024/03/04 14:33:07;;;;;;;5.30;3.00;;;;;;;;;;4992520;28;20183;-69